createdAt,value
2019-05-10T00:02:12.508Z,10.50
2019-05-10T00:04:58.316Z,10.50
2019-05-10T00:07:44.212Z,10.50
2019-05-10T00:10:11.374Z,10.50
2019-05-10T00:12:50.228Z,10.40
2019-05-10T00:15:20.681Z,10.40
2019-05-10T00:17:49.883Z,10.40
2019-05-10T00:20:17.279Z,10.50
2019-05-10T00:22:44.709Z,10.40
2019-05-10T00:25:12.105Z,10.40
2019-05-10T00:27:39.500Z,10.40
2019-05-10T00:30:07.300Z,10.40
2019-05-10T00:32:34.692Z,10.30
2019-05-10T00:35:02.085Z,10.30
2019-05-10T00:37:29.684Z,10.30
2019-05-10T00:39:57.077Z,10.30
2019-05-10T00:42:24.503Z,10.10
2019-05-10T00:44:52.039Z,10.10
2019-05-10T00:47:19.363Z,10.00
2019-05-10T00:49:46.751Z,9.90
2019-05-10T00:52:14.222Z,9.90
2019-05-10T00:54:42.707Z,9.90
2019-05-10T00:57:10.187Z,10.00
2019-05-10T00:59:37.967Z,10.00
2019-05-10T01:02:05.755Z,10.00
2019-05-10T01:04:33.150Z,10.10
2019-05-10T01:07:00.583Z,10.10
2019-05-10T01:09:27.980Z,10.20
2019-05-10T01:11:55.371Z,10.20
2019-05-10T01:14:22.795Z,10.20
2019-05-10T01:16:50.191Z,10.20
2019-05-10T01:19:17.591Z,10.20
2019-05-10T01:21:45.123Z,10.30
2019-05-10T01:24:12.515Z,10.30
2019-05-10T01:26:39.903Z,10.30
2019-05-10T01:29:07.323Z,10.30
2019-05-10T01:31:34.715Z,10.30
2019-05-10T01:34:02.112Z,10.20
2019-05-10T01:36:29.700Z,10.20
2019-05-10T01:38:57.091Z,10.20
2019-05-10T01:41:24.507Z,10.30
2019-05-10T01:43:52.487Z,10.30
2019-05-10T01:46:19.884Z,10.40
2019-05-10T01:48:47.296Z,10.30
2019-05-10T01:51:14.723Z,10.30
2019-05-10T01:53:42.270Z,10.30
2019-05-10T01:56:09.677Z,10.20
2019-05-10T01:58:37.272Z,10.30
2019-05-10T02:01:04.992Z,10.30
2019-05-10T02:03:32.390Z,10.30
2019-05-10T02:05:59.860Z,10.30
2019-05-10T02:08:27.251Z,10.20
2019-05-10T02:10:54.653Z,10.20
2019-05-10T02:13:22.180Z,10.20
2019-05-10T02:15:49.588Z,10.20
2019-05-10T02:18:16.980Z,10.20
2019-05-10T02:20:44.414Z,10.20
2019-05-10T02:23:11.808Z,10.20
2019-05-10T02:25:39.207Z,10.20
2019-05-10T02:28:06.639Z,10.10
2019-05-10T02:30:34.034Z,10.10
2019-05-10T02:33:01.433Z,10.10
2019-05-10T02:35:28.885Z,10.00
2019-05-10T02:37:56.278Z,10.00
2019-05-10T02:40:23.664Z,10.00
2019-05-10T02:42:51.149Z,10.10
2019-05-10T02:45:18.629Z,10.10
2019-05-10T02:47:46.016Z,10.10
2019-05-10T02:50:13.476Z,10.10
2019-05-10T02:52:40.864Z,10.20
2019-05-10T02:55:08.678Z,10.20
2019-05-10T02:57:36.456Z,10.20
2019-05-10T03:00:06.182Z,10.20
2019-05-10T03:02:35.003Z,10.10
2019-05-10T03:05:04.099Z,10.20
2019-05-10T03:07:36.013Z,10.20
2019-05-10T03:10:05.307Z,10.20
2019-05-10T03:12:36.356Z,10.20
2019-05-10T03:15:04.751Z,10.20
2019-05-10T03:17:32.140Z,10.20
2019-05-10T03:20:00.415Z,10.20
2019-05-10T03:22:27.813Z,10.20
2019-05-10T03:24:55.215Z,10.10
2019-05-10T03:27:22.667Z,10.20
2019-05-10T03:29:50.499Z,10.10
2019-05-10T03:32:17.880Z,10.00
2019-05-10T03:34:46.221Z,10.00
2019-05-10T03:37:13.809Z,10.00
2019-05-10T03:39:41.197Z,10.00
2019-05-10T03:42:08.805Z,10.00
2019-05-10T03:44:36.203Z,10.00
2019-05-10T03:47:03.595Z,10.10
2019-05-10T03:49:31.051Z,10.10
2019-05-10T03:51:58.423Z,10.10
2019-05-10T03:54:25.824Z,10.00
2019-05-10T03:57:10.866Z,10.10
2019-05-10T03:59:23.101Z,10.00
2019-05-10T04:01:50.686Z,10.20
2019-05-10T04:04:18.125Z,10.20
2019-05-10T04:06:45.514Z,10.10
2019-05-10T04:09:12.911Z,10.10
2019-05-10T04:11:40.353Z,10.00
2019-05-10T04:14:07.756Z,10.00
2019-05-10T04:16:35.169Z,10.10
2019-05-10T04:19:02.896Z,10.20
2019-05-10T04:21:30.301Z,10.20
2019-05-10T04:23:57.725Z,10.30
2019-05-10T04:26:25.377Z,10.30
2019-05-10T04:28:52.781Z,10.30
2019-05-10T04:31:20.166Z,10.30
2019-05-10T04:33:47.648Z,10.30
2019-05-10T04:36:15.066Z,10.40
2019-05-10T04:38:42.454Z,10.40
2019-05-10T04:41:09.885Z,10.40
2019-05-10T04:43:37.276Z,10.50
2019-05-10T04:46:04.794Z,10.50
2019-05-10T04:48:32.240Z,10.50
2019-05-10T04:50:59.640Z,10.50
2019-05-10T04:53:27.056Z,10.60
2019-05-10T04:55:54.533Z,10.60
2019-05-10T04:58:21.920Z,10.70
2019-05-10T05:00:49.444Z,10.90
2019-05-10T05:03:17.093Z,11.00
2019-05-10T05:05:44.492Z,10.90
2019-05-10T05:08:11.903Z,10.80
2019-05-10T05:10:39.364Z,10.80
2019-05-10T05:13:06.799Z,10.70
2019-05-10T05:15:34.165Z,10.60
2019-05-10T05:18:01.696Z,10.60
2019-05-10T05:20:29.107Z,10.70
2019-05-10T05:22:56.507Z,10.80
2019-05-10T05:25:24.071Z,10.80
2019-05-10T05:28:06.480Z,10.80
2019-05-10T05:30:20.680Z,10.90
2019-05-10T05:32:48.395Z,11.00
2019-05-10T05:35:15.798Z,11.20
2019-05-10T05:37:43.195Z,11.20
2019-05-10T05:40:11.133Z,11.30
2019-05-10T05:42:38.619Z,11.30
2019-05-10T05:45:07.140Z,11.30
2019-05-10T05:47:37.470Z,11.30
2019-05-10T05:50:04.261Z,11.30
2019-05-10T05:52:51.250Z,11.30
2019-05-10T05:55:22.727Z,11.20
2019-05-10T06:00:37.865Z,11.20
2019-05-10T06:03:04.180Z,11.40
2019-05-10T06:05:34.583Z,11.60
2019-05-10T06:08:01.192Z,11.70
2019-05-10T06:10:28.579Z,11.70
2019-05-10T06:12:55.999Z,11.70
2019-05-10T06:15:28.848Z,11.80
2019-05-10T06:17:57.060Z,11.80
2019-05-10T06:20:21.847Z,11.90
2019-05-10T06:23:05.833Z,11.90
2019-05-10T06:25:18.824Z,11.90
2019-05-10T06:27:46.430Z,11.80
2019-05-10T06:30:14.467Z,11.80
2019-05-10T06:32:41.863Z,11.90
2019-05-10T06:35:14.207Z,12.00
2019-05-10T06:37:38.903Z,12.20
2019-05-10T06:40:07.244Z,12.30
2019-05-10T06:42:36.176Z,12.40
2019-05-10T06:45:14.265Z,12.60
2019-05-10T06:47:34.303Z,12.90
2019-05-10T06:50:01.701Z,13.00
2019-05-10T06:52:29.881Z,13.30
2019-05-10T06:54:58.734Z,13.50
2019-05-10T06:57:26.339Z,13.90
2019-05-10T06:59:56.493Z,14.20
2019-05-10T07:02:26.767Z,14.20
2019-05-10T07:04:52.671Z,14.30
2019-05-10T07:07:42.768Z,14.40
2019-05-10T07:10:13.022Z,14.60
2019-05-10T07:12:18.959Z,14.70
2019-05-10T07:14:46.910Z,14.80
2019-05-10T07:17:14.478Z,15.00
2019-05-10T07:19:53.270Z,15.20
2019-05-10T07:22:11.140Z,15.20
2019-05-10T07:24:38.531Z,15.20
2019-05-10T07:27:06.107Z,15.30
2019-05-10T07:29:41.939Z,15.30
2019-05-10T07:32:03.344Z,15.50
2019-05-10T07:34:30.739Z,15.60
2019-05-10T07:37:01.723Z,15.80
2019-05-10T07:39:27.555Z,16.00
2019-05-10T07:42:00.195Z,16.20
2019-05-10T07:44:24.177Z,16.30
2019-05-10T07:46:56.401Z,16.30
2019-05-10T07:49:23.966Z,16.50
2019-05-10T07:51:50.023Z,16.50
2019-05-10T07:54:17.440Z,16.60
2019-05-10T07:56:45.688Z,16.60
2019-05-10T07:59:16.416Z,16.70
2019-05-10T08:01:43.749Z,16.70
2019-05-10T08:04:13.031Z,16.80
2019-05-10T08:06:47.619Z,16.90
2019-05-10T08:09:10.349Z,16.70
2019-05-10T08:11:39.087Z,16.40
2019-05-10T08:14:11.086Z,16.40
2019-05-10T08:16:36.068Z,16.30
2019-05-10T08:19:03.572Z,16.20
2019-05-10T08:21:32.253Z,16.10
2019-05-10T08:24:05.122Z,15.90
2019-05-10T08:26:28.972Z,15.60
2019-05-10T08:28:56.433Z,15.60
2019-05-10T08:31:26.261Z,15.70
2019-05-10T08:33:58.782Z,15.70
2019-05-10T08:36:23.555Z,15.90
2019-05-10T08:39:03.116Z,15.70
2019-05-10T08:41:22.195Z,15.50
2019-05-10T08:43:49.619Z,15.50
2019-05-10T08:46:19.493Z,15.80
2019-05-10T08:48:50.609Z,15.80
2019-05-10T08:51:15.696Z,15.90
2019-05-10T08:53:47.276Z,16.10
2019-05-10T08:56:20.595Z,16.00
2019-05-10T08:59:00.171Z,15.80
2019-05-10T09:01:30.617Z,15.60
2019-05-10T09:04:00.851Z,15.70
2019-05-10T09:06:27.136Z,15.70
2019-05-10T09:09:01.863Z,15.70
2019-05-10T09:11:23.839Z,15.70
2019-05-10T09:13:53.402Z,15.70
2019-05-10T09:16:20.434Z,15.70
2019-05-10T09:18:51.251Z,15.70
2019-05-10T09:21:17.252Z,15.70
2019-05-10T09:23:44.639Z,15.70
2019-05-10T09:26:16.518Z,15.70
2019-05-10T09:28:42.135Z,15.70
2019-05-10T09:31:18.936Z,15.70
2019-05-10T09:33:43.297Z,15.90
2019-05-10T09:36:08.127Z,16.20
2019-05-10T09:38:39.624Z,16.40
2019-05-10T09:41:04.956Z,16.40
2019-05-10T09:43:32.348Z,16.40
2019-05-10T09:45:59.743Z,16.40
2019-05-10T09:48:27.159Z,16.40
2019-05-10T09:50:56.334Z,16.20
2019-05-10T09:53:29.358Z,16.10
2019-05-10T09:56:01.673Z,16.10
2019-05-10T09:58:22.609Z,16.10
2019-05-10T10:00:50.496Z,16.00
2019-05-10T10:03:18.253Z,16.10
2019-05-10T10:05:48.077Z,16.10
2019-05-10T10:08:14.865Z,16.00
2019-05-10T10:10:42.583Z,15.90
2019-05-10T10:13:13.584Z,16.00
2019-05-10T10:15:39.165Z,15.90
2019-05-10T10:18:06.711Z,15.90
2019-05-10T10:20:36.097Z,15.90
2019-05-10T10:23:03.785Z,15.70
2019-05-10T10:25:35.275Z,15.80
2019-05-10T10:28:00.428Z,15.70
2019-05-10T10:30:31.280Z,15.60
2019-05-10T10:32:58.109Z,15.60
2019-05-10T10:35:27.685Z,15.60
2019-05-10T10:38:00.713Z,15.60
2019-05-10T10:40:24.215Z,15.60
2019-05-10T10:42:51.622Z,15.70
2019-05-10T10:45:19.231Z,15.60
2019-05-10T10:47:47.246Z,15.50
2019-05-10T10:50:17.090Z,15.60
2019-05-10T10:52:44.047Z,15.80
2019-05-10T10:55:13.485Z,15.90
2019-05-10T10:57:40.983Z,16.00
2019-05-10T11:00:09.199Z,16.10
2019-05-10T11:02:36.644Z,16.40
2019-05-10T11:05:04.665Z,16.70
2019-05-10T11:07:33.781Z,16.90
2019-05-10T11:10:14.631Z,16.90
2019-05-10T11:12:30.886Z,17.00
2019-05-10T11:14:58.332Z,17.30
2019-05-10T11:17:25.775Z,17.50
2019-05-10T11:19:53.176Z,17.40
2019-05-10T11:22:21.512Z,17.80
2019-05-10T11:24:51.527Z,18.00
2019-05-10T11:27:18.292Z,17.90
2019-05-10T11:29:45.680Z,17.90
2019-05-10T11:32:16.609Z,17.90
2019-05-10T11:34:42.311Z,17.90
2019-05-10T11:37:09.704Z,18.10
2019-05-10T11:39:41.811Z,18.10
2019-05-10T11:42:07.335Z,18.50
2019-05-10T11:44:35.031Z,18.60
2019-05-10T11:47:02.407Z,18.60
2019-05-10T11:49:30.786Z,18.80
2019-05-10T11:51:58.861Z,18.80
2019-05-10T11:54:27.118Z,19.00
2019-05-10T11:56:58.627Z,19.50
2019-05-10T11:59:27.472Z,19.80
2019-05-10T12:01:57.875Z,20.00
2019-05-10T12:04:33.085Z,20.10
2019-05-10T12:06:51.999Z,20.10
2019-05-10T12:09:21.245Z,20.00
2019-05-10T12:11:52.309Z,19.80
2019-05-10T12:14:17.847Z,19.80
2019-05-10T12:16:45.324Z,20.00
2019-05-10T12:19:19.690Z,20.00
2019-05-10T12:21:41.924Z,20.00
2019-05-10T12:24:26.334Z,19.90
2019-05-10T12:29:13.450Z,19.80
2019-05-10T12:31:37.364Z,19.90
2019-05-10T12:34:09.274Z,20.10
2019-05-10T12:36:33.959Z,20.10
2019-05-10T12:39:01.881Z,19.90
2019-05-10T12:41:31.496Z,19.90
2019-05-10T12:44:04.161Z,19.80
2019-05-10T12:46:30.117Z,19.50
2019-05-10T12:48:57.286Z,19.30
2019-05-10T12:51:24.670Z,18.90
2019-05-10T12:53:52.367Z,18.80
2019-05-10T12:56:19.743Z,18.80
2019-05-10T12:58:56.365Z,18.60
2019-05-10T13:01:16.530Z,18.50
2019-05-10T13:03:44.809Z,18.50
2019-05-10T13:06:12.115Z,18.70
2019-05-10T13:08:39.510Z,18.70
2019-05-10T13:11:07.009Z,18.80
2019-05-10T13:13:34.437Z,18.80
2019-05-10T13:16:03.441Z,18.80
2019-05-10T13:21:00.366Z,18.90
2019-05-10T13:23:28.001Z,18.90
2019-05-10T13:25:55.480Z,19.00
2019-05-10T13:28:22.926Z,19.00
2019-05-10T13:30:50.343Z,19.20
2019-05-10T13:33:28.702Z,19.50
2019-05-10T13:35:50.786Z,19.40
2019-05-10T13:38:16.365Z,19.10
2019-05-10T13:40:45.664Z,19.10
2019-05-10T13:43:17.447Z,19.00
2019-05-10T13:45:42.503Z,18.70
2019-05-10T13:48:09.941Z,18.70
2019-05-10T13:50:37.492Z,18.80
2019-05-10T13:53:04.862Z,18.70
2019-05-10T13:55:32.576Z,18.50
2019-05-10T13:57:59.990Z,19.00
2019-05-10T14:00:32.993Z,18.50
2019-05-10T14:02:57.114Z,18.80
2019-05-10T14:05:25.013Z,19.00
2019-05-10T14:07:53.116Z,19.00
2019-05-10T14:10:23.583Z,19.30
2019-05-10T14:12:50.088Z,19.40
2019-05-10T14:15:17.599Z,20.00
2019-05-10T14:17:45.061Z,19.80
2019-05-10T14:20:19.538Z,19.90
2019-05-10T14:22:42.176Z,19.90
2019-05-10T14:25:10.252Z,19.90
2019-05-10T14:27:38.598Z,20.00
2019-05-10T14:30:13.532Z,19.80
2019-05-10T14:32:39.280Z,19.60
2019-05-10T14:35:07.133Z,19.20
2019-05-10T14:37:34.499Z,18.90
2019-05-10T14:40:02.148Z,18.40
2019-05-10T14:42:33.325Z,18.00
2019-05-10T14:44:58.764Z,17.50
2019-05-10T14:47:26.469Z,17.20
2019-05-10T14:49:53.868Z,16.70
2019-05-10T14:52:22.703Z,16.70
2019-05-10T14:54:55.394Z,17.00
2019-05-10T14:57:19.596Z,17.70
2019-05-10T14:59:47.005Z,17.40
2019-05-10T15:02:17.048Z,17.10
2019-05-10T15:04:46.728Z,16.80
2019-05-10T15:07:14.163Z,18.40
2019-05-10T15:09:42.600Z,19.60
2019-05-10T15:12:15.393Z,20.40
2019-05-10T15:14:39.202Z,20.90
2019-05-10T15:17:06.791Z,20.50
2019-05-10T15:19:34.196Z,19.70
2019-05-10T15:22:01.854Z,19.10
2019-05-10T15:24:29.363Z,18.60
2019-05-10T15:26:56.763Z,18.20
2019-05-10T15:29:24.801Z,17.80
2019-05-10T15:31:52.669Z,17.60
2019-05-10T15:34:20.081Z,17.50
2019-05-10T15:36:47.477Z,17.40
2019-05-10T15:39:14.960Z,17.10
2019-05-10T15:41:42.348Z,17.10
2019-05-10T15:44:09.760Z,16.90
2019-05-10T15:46:41.870Z,17.00
2019-05-10T15:49:06.424Z,17.00
2019-05-10T15:51:36.386Z,17.00
2019-05-10T15:54:05.383Z,17.00
2019-05-10T15:56:35.658Z,17.10
2019-05-10T15:59:01.438Z,17.10
2019-05-10T16:01:29.180Z,17.70
2019-05-10T16:03:56.679Z,19.30
2019-05-10T16:06:24.564Z,20.60
2019-05-10T16:08:51.967Z,21.10
2019-05-10T16:11:20.806Z,20.80
2019-05-10T16:13:48.525Z,20.70
2019-05-10T16:16:15.921Z,20.70
2019-05-10T16:18:43.311Z,21.10
2019-05-10T16:21:15.114Z,22.00
2019-05-10T16:23:41.362Z,23.00
2019-05-10T16:26:09.148Z,23.40
2019-05-10T16:28:36.621Z,24.00
2019-05-10T16:31:05.942Z,24.10
2019-05-10T16:33:33.341Z,23.70
2019-05-10T16:36:01.007Z,22.70
2019-05-10T16:38:28.416Z,22.20
2019-05-10T16:40:59.412Z,21.30
2019-05-10T16:43:25.204Z,21.10
2019-05-10T16:45:52.640Z,21.10
2019-05-10T16:48:20.045Z,20.30
2019-05-10T16:50:47.484Z,19.70
2019-05-10T16:53:14.870Z,18.90
2019-05-10T16:55:42.936Z,18.40
2019-05-10T16:58:15.038Z,17.90
2019-05-10T17:00:40.817Z,17.40
2019-05-10T17:03:13.074Z,17.10
2019-05-10T17:05:52.336Z,17.00
2019-05-10T17:08:07.865Z,16.70
2019-05-10T17:10:35.266Z,16.50
2019-05-10T17:13:04.920Z,16.40
2019-05-10T17:15:39.096Z,16.40
2019-05-10T17:18:01.280Z,16.30
2019-05-10T17:20:29.047Z,16.10
2019-05-10T17:23:07.531Z,16.00
2019-05-10T17:25:27.454Z,15.90
2019-05-10T17:27:57.521Z,15.80
2019-05-10T17:30:27.847Z,15.80
2019-05-10T17:32:57.657Z,15.60
2019-05-10T17:35:22.576Z,15.60
2019-05-10T17:37:52.854Z,15.50
2019-05-10T17:40:19.354Z,15.60
2019-05-10T17:42:47.061Z,15.50
2019-05-10T17:45:14.457Z,15.40
2019-05-10T17:47:41.856Z,15.40
2019-05-10T17:50:09.462Z,15.30
2019-05-10T17:52:36.845Z,15.30
2019-05-10T17:55:04.623Z,15.30
2019-05-10T17:57:32.084Z,15.30
2019-05-10T17:59:59.484Z,15.30
2019-05-10T18:02:26.909Z,15.20
2019-05-10T18:04:54.348Z,15.10
2019-05-10T18:07:21.895Z,14.90
2019-05-10T18:09:49.695Z,14.70
2019-05-10T18:12:20.371Z,14.40
2019-05-10T18:14:50.367Z,14.30
2019-05-10T18:17:15.719Z,14.10
2019-05-10T18:19:43.283Z,13.90
2019-05-10T18:22:10.667Z,13.90
2019-05-10T18:24:42.221Z,13.70
2019-05-10T18:27:07.716Z,13.70
2019-05-10T18:29:35.124Z,13.60
2019-05-10T18:32:02.532Z,13.60
2019-05-10T18:34:33.263Z,13.50
2019-05-10T18:36:59.314Z,13.50
2019-05-10T18:39:26.716Z,13.40
2019-05-10T18:41:54.139Z,13.40
2019-05-10T18:44:21.546Z,13.30
2019-05-10T18:46:48.951Z,13.30
2019-05-10T18:49:16.423Z,13.20
2019-05-10T18:51:43.851Z,13.30
2019-05-10T18:54:11.240Z,13.30
2019-05-10T18:56:38.679Z,13.30
2019-05-10T18:59:07.336Z,13.20
2019-05-10T19:01:38.787Z,13.20
2019-05-10T19:04:07.391Z,13.20
2019-05-10T19:06:34.260Z,13.10
2019-05-10T19:09:03.375Z,13.00
2019-05-10T19:11:33.279Z,12.90
2019-05-10T19:14:00.174Z,12.80
2019-05-10T19:16:32.136Z,12.80
2019-05-10T19:19:01.807Z,12.80
2019-05-10T19:21:30.638Z,12.70
2019-05-10T19:23:55.440Z,12.60
2019-05-10T19:26:23.769Z,12.60
2019-05-10T19:28:52.087Z,12.60
2019-05-10T19:31:19.481Z,12.50
2019-05-10T19:33:47.262Z,12.50
2019-05-10T19:36:14.806Z,12.40
2019-05-10T19:38:42.224Z,12.30
2019-05-10T19:41:09.660Z,12.20
2019-05-10T19:43:37.076Z,12.10
2019-05-10T19:46:05.684Z,12.10
2019-05-10T19:48:35.446Z,12.10
2019-05-10T19:51:03.082Z,12.10
2019-05-10T19:53:36.484Z,12.10
2019-05-10T19:56:03.972Z,12.10
2019-05-10T19:58:32.332Z,12.00
2019-05-10T20:01:01.123Z,11.90
2019-05-10T20:03:28.597Z,11.80
2019-05-10T20:05:56.251Z,11.70
2019-05-10T20:08:23.916Z,11.60
2019-05-10T20:10:51.376Z,11.60
2019-05-10T20:13:18.981Z,11.60
2019-05-10T20:15:46.526Z,11.60
2019-05-10T20:18:14.171Z,11.50
2019-05-10T20:20:41.797Z,11.50
2019-05-10T20:23:09.193Z,11.40
2019-05-10T20:25:36.676Z,11.30
2019-05-10T20:28:06.417Z,11.30
2019-05-10T20:30:33.404Z,11.20
2019-05-10T20:33:00.895Z,11.10
2019-05-10T20:35:28.427Z,11.00
2019-05-10T20:38:01.925Z,10.90
2019-05-10T20:40:25.054Z,10.90
2019-05-10T20:42:52.461Z,10.80
2019-05-10T20:45:19.852Z,10.80
2019-05-10T20:47:47.451Z,10.70
2019-05-10T20:50:15.040Z,10.70
2019-05-10T20:52:42.449Z,10.80
2019-05-10T20:55:10.143Z,10.80
2019-05-10T20:57:37.543Z,10.70
2019-05-10T21:00:05.253Z,10.70
2019-05-10T21:02:32.708Z,10.60
2019-05-10T21:05:00.109Z,10.50
2019-05-10T21:07:27.695Z,10.40
2019-05-10T21:09:55.331Z,10.30
2019-05-10T21:12:25.584Z,10.30
2019-05-10T21:14:53.004Z,10.30
2019-05-10T21:17:20.587Z,10.10
2019-05-10T21:19:47.999Z,10.20
2019-05-10T21:22:15.395Z,10.10
2019-05-10T21:24:42.848Z,10.00
2019-05-10T21:27:10.246Z,10.00
2019-05-10T21:29:37.643Z,10.10
2019-05-10T21:32:05.870Z,10.10
2019-05-10T21:34:33.663Z,10.10
2019-05-10T21:37:00.991Z,10.00
2019-05-10T21:39:28.864Z,10.10
2019-05-10T21:41:56.468Z,10.20
2019-05-10T21:44:25.833Z,10.30
2019-05-10T21:46:54.062Z,10.20
2019-05-10T21:49:21.510Z,10.20
2019-05-10T21:51:49.295Z,10.20
2019-05-10T21:54:18.661Z,10.20
2019-05-10T21:56:45.976Z,10.30
2019-05-10T21:59:13.375Z,10.30
2019-05-10T22:01:40.812Z,10.20
2019-05-10T22:04:08.193Z,10.30
2019-05-10T22:06:35.877Z,10.30
2019-05-10T22:09:06.640Z,10.20
2019-05-10T22:11:34.023Z,10.20
2019-05-10T22:14:01.415Z,10.20
2019-05-10T22:16:29.087Z,10.20
2019-05-10T22:19:01.293Z,10.10
2019-05-10T22:21:28.656Z,10.00
2019-05-10T22:23:56.203Z,10.00
2019-05-10T22:26:23.604Z,10.00
2019-05-10T22:28:50.988Z,10.00
2019-05-10T22:31:18.775Z,10.00
2019-05-10T22:33:46.173Z,10.00
2019-05-10T22:36:13.591Z,9.90
2019-05-10T22:38:41.179Z,9.90
2019-05-10T22:41:08.571Z,9.90
2019-05-10T22:43:35.966Z,9.80
2019-05-10T22:46:03.551Z,9.80
2019-05-10T22:48:30.947Z,9.80
2019-05-10T22:50:58.353Z,9.80
2019-05-10T22:53:25.939Z,9.70
2019-05-10T22:55:53.342Z,9.70
2019-05-10T22:58:20.740Z,9.70
2019-05-10T23:00:48.337Z,9.70
2019-05-10T23:03:15.743Z,9.70
2019-05-10T23:05:43.151Z,9.60
2019-05-10T23:08:10.588Z,9.60
2019-05-10T23:10:38.493Z,9.60
2019-05-10T23:13:05.901Z,9.60
2019-05-10T23:15:33.380Z,9.60
2019-05-10T23:18:00.782Z,9.60
2019-05-10T23:20:28.174Z,9.60
2019-05-10T23:22:55.615Z,9.60
2019-05-10T23:25:23.011Z,9.60
2019-05-10T23:27:50.421Z,9.60
2019-05-10T23:30:18.179Z,9.60
2019-05-10T23:32:45.574Z,9.70
2019-05-10T23:35:12.967Z,9.70
2019-05-10T23:37:40.446Z,9.70
2019-05-10T23:40:08.367Z,9.70
2019-05-10T23:42:35.755Z,9.80
2019-05-10T23:45:03.855Z,9.80
2019-05-10T23:47:31.260Z,9.80
2019-05-10T23:49:58.646Z,9.80
2019-05-10T23:52:26.979Z,9.80
2019-05-10T23:54:54.380Z,9.90
2019-05-10T23:57:21.780Z,9.90
2019-05-10T23:59:49.224Z,10.00
